createdAt,value
2019-05-23T00:01:19.607Z,-21715.72
2019-05-23T00:03:52.312Z,-21715.17
2019-05-23T00:06:22.610Z,-21708.81
2019-05-23T00:08:52.614Z,-21700.23
2019-05-23T00:11:30.305Z,-21694.27
2019-05-23T00:14:00.210Z,-21684.99
2019-05-23T00:16:28.968Z,-21680.70
2019-05-23T00:18:58.690Z,-21688.05
2019-05-23T00:21:28.159Z,-21686.93
2019-05-23T00:23:58.065Z,-21683.19
2019-05-23T00:26:26.337Z,-21669.75
2019-05-23T00:29:09.177Z,-21682.50
2019-05-23T00:31:39.236Z,-21704.80
2019-05-23T00:34:10.239Z,-21682.91
2019-05-23T00:36:39.751Z,-21679.73
2019-05-23T00:39:09.219Z,-21691.09
2019-05-23T00:41:39.693Z,-21704.66
2019-05-23T00:44:08.324Z,-21698.84
2019-05-23T00:46:38.362Z,-21691.09
2019-05-23T00:49:08.267Z,-21678.48
2019-05-23T00:51:36.880Z,-21694.55
2019-05-23T00:54:07.251Z,-21705.63
2019-05-23T00:56:37.321Z,-21696.49
2019-05-23T00:59:05.871Z,-21692.47
2019-05-23T01:01:34.190Z,-21697.32
2019-05-23T01:04:03.721Z,-21688.18
2019-05-23T01:06:33.649Z,-21688.32
2019-05-23T01:09:03.038Z,-21704.11
2019-05-23T01:11:31.464Z,-21701.06
2019-05-23T01:14:00.581Z,-21674.32
2019-05-23T01:16:31.496Z,-21688.87
2019-05-23T01:18:59.939Z,-21700.23
2019-05-23T01:21:39.465Z,-21695.25
2019-05-23T01:24:09.437Z,-21703.96
2019-05-23T01:26:38.234Z,-21701.62
2019-05-23T01:29:23.651Z,-21687.63
2019-05-23T01:32:10.625Z,-21694.00
2019-05-23T01:34:34.290Z,-21703.28
2019-05-23T01:37:03.938Z,-21682.09
2019-05-23T01:39:32.858Z,-21699.12
2019-05-23T01:42:02.573Z,-21687.91
2019-05-23T01:44:30.926Z,-21695.25
2019-05-23T01:46:59.567Z,-21683.05
2019-05-23T01:49:28.753Z,-21665.17
2019-05-23T01:51:59.375Z,-21681.53
2019-05-23T01:54:30.399Z,-21669.05
2019-05-23T01:57:00.033Z,-21680.84
2019-05-23T01:59:28.466Z,-21679.73
2019-05-23T02:01:57.294Z,-21680.84
2019-05-23T02:04:26.105Z,-21664.34
2019-05-23T02:06:55.463Z,-21693.59
2019-05-23T02:09:23.755Z,-21708.81
2019-05-23T02:11:52.393Z,-21702.59
2019-05-23T02:14:21.299Z,-21676.68
2019-05-23T02:16:50.565Z,-21693.59
2019-05-23T02:19:20.432Z,-21688.74
2019-05-23T02:21:49.269Z,-21691.09
2019-05-23T02:24:18.460Z,-21671.97
2019-05-23T02:26:46.792Z,-21675.43
2019-05-23T02:29:15.622Z,-21657.27
2019-05-23T02:31:45.140Z,-21665.45
2019-05-23T02:34:14.450Z,-21666.70
2019-05-23T02:36:43.123Z,-21665.59
2019-05-23T02:39:29.685Z,-21656.02
2019-05-23T02:42:00.330Z,-21674.74
2019-05-23T02:44:30.399Z,-21679.04
2019-05-23T02:47:00.327Z,-21645.46
2019-05-23T02:49:31.778Z,-21631.43
2019-05-23T02:52:04.914Z,-21640.05
2019-05-23T02:54:37.429Z,-21646.85
2019-05-23T02:57:06.931Z,-21654.49
2019-05-23T02:59:41.801Z,-21679.59
2019-05-23T03:02:27.886Z,-21662.12
2019-05-23T03:04:56.989Z,-21666.42
2019-05-23T03:07:28.430Z,-21671.14
2019-05-23T03:09:56.719Z,-21681.53
2019-05-23T03:12:26.746Z,-21670.59
2019-05-23T03:14:55.168Z,-21654.91
2019-05-23T03:17:26.590Z,-21658.79
2019-05-23T03:19:57.941Z,-21672.66
2019-05-23T03:22:28.224Z,-21655.60
2019-05-23T03:25:01.492Z,-21644.63
2019-05-23T03:27:31.862Z,-21648.11
2019-05-23T03:30:00.637Z,-21660.45
2019-05-23T03:32:37.374Z,-21671.55
2019-05-23T03:35:02.251Z,-21653.66
2019-05-23T03:37:30.570Z,-21642.27
2019-05-23T03:39:59.485Z,-21594.57
2019-05-23T03:42:29.140Z,-21625.60
2019-05-23T03:44:59.888Z,-21630.18
2019-05-23T03:47:30.262Z,-21656.98
2019-05-23T03:49:58.637Z,-21636.58
2019-05-23T03:52:27.895Z,-21661.57
2019-05-23T03:54:56.725Z,-21654.77
2019-05-23T03:57:28.884Z,-21653.52
2019-05-23T03:59:59.640Z,-21660.73
2019-05-23T04:02:28.924Z,-21653.80
2019-05-23T04:04:59.187Z,-21654.35
2019-05-23T04:07:28.134Z,-21675.71
2019-05-23T04:09:56.492Z,-21673.63
2019-05-23T04:12:24.892Z,-21655.60
2019-05-23T04:14:53.819Z,-21660.60
2019-05-23T04:17:23.662Z,-21654.91
2019-05-23T04:19:52.017Z,-21665.45
2019-05-23T04:22:20.638Z,-21655.05
2019-05-23T04:24:48.991Z,-21661.57
2019-05-23T04:27:17.621Z,-21624.35
2019-05-23T04:29:46.176Z,-21638.53
2019-05-23T04:32:14.533Z,-21621.85
2019-05-23T04:34:44.100Z,-21670.17
2019-05-23T04:37:12.450Z,-21659.07
2019-05-23T04:39:41.895Z,-21659.35
2019-05-23T04:42:10.312Z,-21671.14
2019-05-23T04:44:43.467Z,-21683.19
2019-05-23T04:47:10.225Z,-21700.23
2019-05-23T04:49:38.627Z,-21686.11
2019-05-23T04:52:07.740Z,-21671.55
2019-05-23T04:54:36.083Z,-21684.03
2019-05-23T04:57:06.983Z,-21678.07
2019-05-23T04:59:36.405Z,-21671.55
2019-05-23T05:02:24.745Z,-21679.59
2019-05-23T05:04:38.320Z,-21680.01
2019-05-23T05:07:07.590Z,-21688.18
2019-05-23T05:09:36.984Z,-21697.60
2019-05-23T05:12:05.692Z,-21686.25
2019-05-23T05:14:34.403Z,-21677.37
2019-05-23T05:17:03.257Z,-21679.18
2019-05-23T05:19:31.680Z,-21680.28
2019-05-23T05:22:00.038Z,-21688.32
2019-05-23T05:24:28.397Z,-21685.55
2019-05-23T05:26:56.692Z,-21687.08
2019-05-23T05:29:24.963Z,-21684.58
2019-05-23T05:31:54.307Z,-21703.69
2019-05-23T05:34:22.789Z,-21690.68
2019-05-23T05:36:51.195Z,-21666.97
2019-05-23T05:39:19.763Z,-21624.63
2019-05-23T05:41:48.076Z,-21599.86
2019-05-23T05:44:16.395Z,-21618.92
2019-05-23T05:46:44.730Z,-21638.25
2019-05-23T05:49:13.852Z,-21633.24
2019-05-23T05:51:42.188Z,-21629.21
2019-05-23T05:54:11.468Z,-21676.27
2019-05-23T05:56:39.736Z,-21658.52
2019-05-23T05:59:08.082Z,-21661.84
2019-05-23T06:01:36.732Z,-21651.43
2019-05-23T06:04:05.478Z,-21658.65
2019-05-23T06:06:35.465Z,-21665.17
2019-05-23T06:09:10.111Z,-21673.63
2019-05-23T06:11:39.559Z,-21678.07
2019-05-23T06:14:09.012Z,-21684.03
2019-05-23T06:16:37.734Z,-21662.68
2019-05-23T06:19:06.941Z,-21643.38
2019-05-23T06:21:39.455Z,-21635.19
2019-05-23T06:24:09.854Z,-21701.34
2019-05-23T06:26:38.397Z,-21675.29
2019-05-23T06:29:07.662Z,-21697.46
2019-05-23T06:31:37.195Z,-21682.50
2019-05-23T06:34:05.565Z,-21644.08
2019-05-23T06:36:33.928Z,-21673.77
2019-05-23T06:39:02.599Z,-21641.30
2019-05-23T06:41:30.925Z,-21640.33
2019-05-23T06:43:59.429Z,-21662.95
2019-05-23T06:46:28.038Z,-21684.03
2019-05-23T06:48:56.374Z,-21700.92
2019-05-23T06:51:25.815Z,-21684.30
2019-05-23T06:53:54.157Z,-21663.09
2019-05-23T06:56:22.857Z,-21651.57
2019-05-23T06:58:51.185Z,-21648.52
2019-05-23T07:01:19.772Z,-21703.28
2019-05-23T07:03:48.121Z,-21621.02
2019-05-23T07:06:20.658Z,-21672.38
2019-05-23T07:08:51.195Z,-21669.61
2019-05-23T07:11:20.793Z,-21645.88
2019-05-23T07:13:49.083Z,-21677.93
2019-05-23T07:16:17.372Z,-21665.45
2019-05-23T07:18:45.675Z,-21712.13
2019-05-23T07:21:14.017Z,-21701.06
2019-05-23T07:23:42.370Z,-21740.46
2019-05-23T07:26:11.138Z,-21728.72
2019-05-23T07:28:39.614Z,-21698.29
2019-05-23T07:31:08.713Z,-21695.66
2019-05-23T07:33:37.048Z,-21724.71
2019-05-23T07:36:05.393Z,-21741.02
2019-05-23T07:38:33.677Z,-21675.98
2019-05-23T07:41:02.813Z,-21755.64
2019-05-23T07:43:31.300Z,-21716.14
2019-05-23T07:46:00.620Z,-21735.49
2019-05-23T07:48:31.310Z,-21743.09
2019-05-23T07:50:59.667Z,-21715.04
2019-05-23T07:53:29.673Z,-21772.61
2019-05-23T07:55:59.815Z,-21746.26
2019-05-23T07:58:29.043Z,-21710.05
2019-05-23T08:00:58.996Z,-21738.53
2019-05-23T08:03:29.868Z,-21733.42
2019-05-23T08:05:58.533Z,-21720.84
2019-05-23T08:08:27.155Z,-21743.77
2019-05-23T08:10:55.433Z,-21749.71
2019-05-23T08:13:24.679Z,-21750.68
2019-05-23T08:15:53.179Z,-21721.54
2019-05-23T08:18:21.555Z,-21713.92
2019-05-23T08:20:49.940Z,-21746.68
2019-05-23T08:23:18.931Z,-21746.41
2019-05-23T08:25:48.241Z,-21730.79
2019-05-23T08:28:16.894Z,-21749.86
2019-05-23T08:30:45.780Z,-21733.56
2019-05-23T08:33:15.758Z,-21738.67
2019-05-23T08:35:44.991Z,-21703.83
2019-05-23T08:38:15.367Z,-21787.21
2019-05-23T08:40:44.619Z,-21760.20
2019-05-23T08:43:13.529Z,-21804.29
2019-05-23T08:45:42.181Z,-21780.20
2019-05-23T08:48:11.149Z,-21757.03
2019-05-23T08:50:39.503Z,-21769.72
2019-05-23T08:53:07.799Z,-21788.87
2019-05-23T08:55:37.114Z,-21819.41
2019-05-23T08:58:05.754Z,-21793.00
2019-05-23T09:00:35.502Z,-21808.96
2019-05-23T09:03:05.391Z,-21768.61
2019-05-23T09:05:35.356Z,-21760.20
2019-05-23T09:08:04.263Z,-21757.44
2019-05-23T09:10:32.820Z,-21757.16
2019-05-23T09:13:01.785Z,-21748.48
2019-05-23T09:15:30.551Z,-21719.32
2019-05-23T09:17:58.904Z,-21767.93
2019-05-23T09:20:27.332Z,-21761.58
2019-05-23T09:22:55.595Z,-21745.71
2019-05-23T09:25:23.869Z,-21751.09
2019-05-23T09:27:53.375Z,-21769.86
2019-05-23T09:30:24.972Z,-21756.06
2019-05-23T09:32:53.415Z,-21783.36
2019-05-23T09:35:22.469Z,-21810.33
2019-05-23T09:37:50.928Z,-21791.90
2019-05-23T09:40:21.929Z,-21771.79
2019-05-23T09:42:49.583Z,-21785.01
2019-05-23T09:45:17.922Z,-21780.05
2019-05-23T09:47:50.954Z,-21768.34
2019-05-23T09:50:18.494Z,-21742.40
2019-05-23T09:52:47.094Z,-21814.60
2019-05-23T09:55:15.448Z,-21817.07
2019-05-23T09:57:43.847Z,-21829.16
2019-05-23T10:00:16.959Z,-21812.39
2019-05-23T10:02:45.339Z,-21802.50
2019-05-23T10:05:15.160Z,-21786.25
2019-05-23T10:07:43.555Z,-21806.76
2019-05-23T10:10:15.539Z,-21789.55
2019-05-23T10:12:43.983Z,-21785.01
2019-05-23T10:15:30.653Z,-21829.86
2019-05-23T10:18:00.962Z,-21846.46
2019-05-23T10:20:31.131Z,-21842.62
2019-05-23T10:22:59.397Z,-21837.54
2019-05-23T10:25:27.673Z,-21819.82
2019-05-23T10:27:56.029Z,-21886.62
2019-05-23T10:30:25.340Z,-21793.69
2019-05-23T10:32:54.697Z,-21783.36
2019-05-23T10:35:24.116Z,-21841.66
2019-05-23T10:37:52.522Z,-21886.48
2019-05-23T10:40:23.060Z,-21875.39
2019-05-23T10:42:51.429Z,-21896.20
2019-05-23T10:45:21.029Z,-21824.36
2019-05-23T10:47:49.301Z,-21857.30
2019-05-23T10:50:18.679Z,-21837.54
2019-05-23T10:52:47.007Z,-21845.64
2019-05-23T10:55:16.067Z,-21866.21
2019-05-23T10:57:44.468Z,-21871.83
2019-05-23T11:00:14.677Z,-21843.86
2019-05-23T11:02:43.438Z,-21857.17
2019-05-23T11:05:14.116Z,-21872.38
2019-05-23T11:07:43.823Z,-21880.87
2019-05-23T11:10:13.930Z,-21865.66
2019-05-23T11:12:42.298Z,-21918.48
2019-05-23T11:15:11.046Z,-21926.80
2019-05-23T11:17:39.334Z,-21908.91
2019-05-23T11:20:08.861Z,-21937.45
2019-05-23T11:22:37.242Z,-21954.36
2019-05-23T11:25:08.300Z,-21947.13
2019-05-23T11:27:37.032Z,-21927.35
2019-05-23T11:30:11.760Z,-21907.14
2019-05-23T11:32:40.099Z,-21888.67
2019-05-23T11:35:08.843Z,-21848.93
2019-05-23T11:37:37.243Z,-21879.63
2019-05-23T11:40:06.869Z,-21883.47
2019-05-23T11:42:35.810Z,-21947.40
2019-05-23T11:45:05.739Z,-21943.86
2019-05-23T11:47:35.215Z,-22001.70
2019-05-23T11:50:08.613Z,-21976.14
2019-05-23T11:52:37.586Z,-21962.53
2019-05-23T11:55:07.568Z,-21964.57
2019-05-23T11:57:37.706Z,-21964.29
2019-05-23T12:00:09.254Z,-21953.81
2019-05-23T12:02:39.813Z,-21945.91
2019-05-23T12:05:09.966Z,-21954.63
2019-05-23T12:07:38.321Z,-21921.48
2019-05-23T12:10:07.964Z,-21914.51
2019-05-23T12:12:36.350Z,-21938.67
2019-05-23T12:15:11.085Z,-21913.83
2019-05-23T12:17:40.139Z,-21921.62
2019-05-23T12:20:09.080Z,-21943.32
2019-05-23T12:22:37.732Z,-21930.77
2019-05-23T12:25:22.196Z,-21923.39
2019-05-23T12:27:40.078Z,-21959.26
2019-05-23T12:30:10.891Z,-21997.21
2019-05-23T12:32:39.391Z,-21943.04
2019-05-23T12:35:11.312Z,-21880.73
2019-05-23T12:37:37.958Z,-21936.09
2019-05-23T12:40:09.412Z,-21991.10
2019-05-23T12:42:37.736Z,-21963.34
2019-05-23T12:45:08.743Z,-21929.68
2019-05-23T12:47:41.536Z,-21977.78
2019-05-23T12:50:11.692Z,-21959.53
2019-05-23T12:52:39.986Z,-21977.37
2019-05-23T12:55:08.488Z,-21996.40
2019-05-23T12:57:37.272Z,-21945.36
2019-05-23T13:00:09.318Z,-22022.74
2019-05-23T13:02:39.791Z,-21952.31
2019-05-23T13:05:09.087Z,-22040.90
2019-05-23T13:07:37.506Z,-22042.39
2019-05-23T13:10:06.576Z,-22075.39
2019-05-23T13:12:34.888Z,-22101.86
2019-05-23T13:15:03.831Z,-22058.50
2019-05-23T13:17:32.432Z,-22105.63
2019-05-23T13:20:00.824Z,-22156.10
2019-05-23T13:22:29.358Z,-22186.95
2019-05-23T13:24:57.633Z,-22169.66
2019-05-23T13:27:26.012Z,-22153.68
2019-05-23T13:29:54.420Z,-22078.23
2019-05-23T13:32:22.850Z,-22088.77
2019-05-23T13:34:51.137Z,-22063.23
2019-05-23T13:37:19.568Z,-22120.45
2019-05-23T13:39:49.156Z,-22166.97
2019-05-23T13:42:17.505Z,-22089.98
2019-05-23T13:44:46.286Z,-22112.64
2019-05-23T13:47:14.664Z,-22002.92
2019-05-23T13:49:43.010Z,-22002.92
2019-05-23T13:52:11.337Z,-22038.87
2019-05-23T13:54:39.616Z,-22088.63
2019-05-23T13:57:08.958Z,-22080.80
2019-05-23T13:59:39.455Z,-22190.70
2019-05-23T14:02:08.730Z,-22100.64
2019-05-23T14:04:37.091Z,-22097.67
2019-05-23T14:07:07.118Z,-22082.01
2019-05-23T14:09:37.689Z,-22015.55
2019-05-23T14:12:20.523Z,-22032.23
2019-05-23T14:14:36.290Z,-22047.27
2019-05-23T14:17:21.574Z,-22051.86
2019-05-23T14:19:51.263Z,-22029.11
2019-05-23T14:22:19.872Z,-22065.67
2019-05-23T14:24:48.266Z,-22004.41
2019-05-23T14:27:34.401Z,-21943.59
2019-05-23T14:30:12.026Z,-21998.85
2019-05-23T14:32:40.504Z,-22028.57
2019-05-23T14:35:08.901Z,-22055.11
2019-05-23T14:37:40.814Z,-22045.23
2019-05-23T14:40:10.423Z,-22037.24
2019-05-23T14:42:40.522Z,-22037.51
2019-05-23T14:45:11.086Z,-22002.92
2019-05-23T14:47:55.905Z,-22026.26
2019-05-23T14:50:26.134Z,-22014.19
2019-05-23T14:52:56.160Z,-22005.50
2019-05-23T14:55:24.499Z,-21955.72
2019-05-23T14:57:53.398Z,-21972.33
2019-05-23T15:00:22.709Z,-21979.41
2019-05-23T15:02:52.310Z,-21987.42
2019-05-23T15:05:41.497Z,-22006.99
2019-05-23T15:08:09.854Z,-21997.48
2019-05-23T15:10:38.248Z,-22036.43
2019-05-23T15:13:06.567Z,-22065.93
2019-05-23T15:15:35.002Z,-22019.61
2019-05-23T15:18:03.350Z,-22038.05
2019-05-23T15:20:31.962Z,-22004.41
2019-05-23T15:23:00.343Z,-21976.96
2019-05-23T15:25:29.714Z,-21992.32
2019-05-23T15:27:57.990Z,-22053.22
2019-05-23T15:30:26.260Z,-21995.45
2019-05-23T15:32:54.555Z,-22000.88
2019-05-23T15:35:23.114Z,-21925.17
2019-05-23T15:37:51.758Z,-21971.65
2019-05-23T15:40:20.699Z,-21979.41
2019-05-23T15:42:49.067Z,-21983.48
2019-05-23T15:45:17.397Z,-21977.78
2019-05-23T15:47:46.107Z,-22066.88
2019-05-23T15:50:16.035Z,-22043.88
2019-05-23T15:52:46.960Z,-22023.14
2019-05-23T15:55:22.669Z,-21986.48
2019-05-23T15:57:52.734Z,-21988.66
2019-05-23T16:00:40.492Z,-21973.83
2019-05-23T16:03:13.708Z,-21991.38
2019-05-23T16:05:41.758Z,-22008.76
2019-05-23T16:08:10.874Z,-21951.08
2019-05-23T16:10:40.681Z,-22006.86
2019-05-23T16:13:09.002Z,-21985.93
2019-05-23T16:15:37.408Z,-22011.88
2019-05-23T16:18:06.438Z,-21983.89
2019-05-23T16:20:34.822Z,-21981.31
2019-05-23T16:23:03.159Z,-21980.63
2019-05-23T16:25:32.434Z,-21961.30
2019-05-23T16:28:00.718Z,-21979.41
2019-05-23T16:30:28.996Z,-21934.31
2019-05-23T16:32:57.353Z,-21967.16
2019-05-23T16:35:26.219Z,-22003.20
2019-05-23T16:37:54.579Z,-21987.42
2019-05-23T16:40:22.933Z,-21935.13
2019-05-23T16:42:51.244Z,-21953.68
2019-05-23T16:45:19.694Z,-21914.10
2019-05-23T16:47:47.982Z,-21936.50
2019-05-23T16:50:16.480Z,-21928.85
2019-05-23T16:52:44.926Z,-21917.11
2019-05-23T16:55:14.921Z,-21920.66
2019-05-23T16:57:44.910Z,-21958.04
2019-05-23T17:00:24.866Z,-21928.17
2019-05-23T17:02:58.590Z,-21932.27
2019-05-23T17:05:31.408Z,-21936.36
2019-05-23T17:08:13.615Z,-21963.61
2019-05-23T17:10:46.251Z,-21929.12
2019-05-23T17:13:16.171Z,-21913.55
2019-05-23T17:15:52.059Z,-21885.66
2019-05-23T17:18:40.163Z,-21923.94
2019-05-23T17:21:19.227Z,-21936.91
2019-05-23T17:23:55.639Z,-21863.47
2019-05-23T17:26:34.173Z,-21930.49
2019-05-23T17:29:04.168Z,-21950.40
2019-05-23T17:31:34.119Z,-21944.54
2019-05-23T17:34:02.654Z,-21879.63
2019-05-23T17:36:31.018Z,-21943.32
2019-05-23T17:38:59.325Z,-21907.14
2019-05-23T17:41:27.911Z,-21899.89
2019-05-23T17:43:56.308Z,-21905.63
2019-05-23T17:46:24.611Z,-21866.21
2019-05-23T17:48:52.918Z,-21916.02
2019-05-23T17:51:21.281Z,-21947.27
2019-05-23T17:53:49.558Z,-21922.84
2019-05-23T17:56:18.390Z,-21936.77
2019-05-23T17:58:47.046Z,-21953.27
2019-05-23T18:01:21.422Z,-21931.72
2019-05-23T18:03:55.279Z,-21951.63
2019-05-23T18:06:35.053Z,-21871.42
2019-05-23T18:09:06.638Z,-21857.99
2019-05-23T18:11:35.118Z,-21929.54
2019-05-23T18:14:03.997Z,-21940.99
2019-05-23T18:16:32.596Z,-21942.63
2019-05-23T18:19:02.014Z,-21956.94
2019-05-23T18:21:30.668Z,-21942.91
2019-05-23T18:23:59.711Z,-21888.94
2019-05-23T18:26:27.986Z,-21908.37
2019-05-23T18:28:56.314Z,-21906.18
2019-05-23T18:31:32.015Z,-21928.04
2019-05-23T18:34:00.578Z,-21878.27
2019-05-23T18:36:29.195Z,-21923.39
2019-05-23T18:38:57.475Z,-21937.72
2019-05-23T18:41:26.070Z,-21923.67
2019-05-23T18:43:55.981Z,-21902.48
2019-05-23T18:46:25.897Z,-21920.80
2019-05-23T18:48:54.902Z,-21906.18
2019-05-23T18:51:23.880Z,-21888.67
2019-05-23T18:53:52.664Z,-21903.17
2019-05-23T18:56:22.137Z,-21888.13
2019-05-23T18:58:50.651Z,-21914.51
2019-05-23T19:01:20.201Z,-21905.63
2019-05-23T19:03:48.657Z,-21903.71
2019-05-23T19:06:20.623Z,-21890.45
2019-05-23T19:08:49.967Z,-21888.67
2019-05-23T19:11:21.809Z,-21882.92
2019-05-23T19:13:50.769Z,-21877.31
2019-05-23T19:16:19.057Z,-21895.11
2019-05-23T19:18:47.966Z,-21888.81
2019-05-23T19:21:18.287Z,-21887.44
2019-05-23T19:23:47.558Z,-21878.95
2019-05-23T19:26:16.448Z,-21885.39
2019-05-23T19:28:45.767Z,-21871.28
2019-05-23T19:31:14.533Z,-21878.27
2019-05-23T19:33:43.947Z,-21858.81
2019-05-23T19:36:12.624Z,-21844.27
2019-05-23T19:38:40.902Z,-21874.43
2019-05-23T19:41:10.655Z,-21886.89
2019-05-23T19:43:39.711Z,-21864.29
2019-05-23T19:46:08.191Z,-21876.48
2019-05-23T19:48:37.385Z,-21873.75
2019-05-23T19:51:06.818Z,-21874.57
2019-05-23T19:53:35.689Z,-21863.06
2019-05-23T19:56:06.836Z,-21865.53
2019-05-23T19:58:37.262Z,-21865.94
2019-05-23T20:01:06.516Z,-21890.99
2019-05-23T20:03:35.624Z,-21864.70
2019-05-23T20:06:04.194Z,-21824.08
2019-05-23T20:08:32.495Z,-21861.69
2019-05-23T20:11:00.802Z,-21869.37
2019-05-23T20:13:30.343Z,-21868.96
2019-05-23T20:16:01.190Z,-21883.88
2019-05-23T20:18:28.949Z,-21865.39
2019-05-23T20:20:59.739Z,-21827.24
2019-05-23T20:23:28.081Z,-21827.79
2019-05-23T20:25:56.371Z,-21845.23
2019-05-23T20:28:25.906Z,-21853.87
2019-05-23T20:30:55.292Z,-21841.38
2019-05-23T20:33:23.949Z,-21822.43
2019-05-23T20:35:52.407Z,-21852.50
2019-05-23T20:38:20.772Z,-21825.04
2019-05-23T20:40:49.054Z,-21857.99
2019-05-23T20:43:17.417Z,-21821.61
2019-05-23T20:45:45.772Z,-21796.58
2019-05-23T20:48:14.282Z,-21779.91
2019-05-23T20:50:42.667Z,-21788.60
2019-05-23T20:53:10.937Z,-21789.55
2019-05-23T20:55:39.226Z,-21842.34
2019-05-23T20:58:07.957Z,-21800.43
2019-05-23T21:00:38.059Z,-21815.01
2019-05-23T21:03:06.927Z,-21822.71
2019-05-23T21:05:35.683Z,-21813.50
2019-05-23T21:08:04.154Z,-21862.10
2019-05-23T21:10:44.709Z,-21886.89
2019-05-23T21:13:13.149Z,-21872.79
2019-05-23T21:15:41.483Z,-21861.41
2019-05-23T21:18:09.864Z,-21864.70
2019-05-23T21:20:38.309Z,-21850.03
2019-05-23T21:23:06.744Z,-21863.20
2019-05-23T21:25:36.733Z,-21870.60
2019-05-23T21:28:05.221Z,-21861.41
2019-05-23T21:30:33.543Z,-21819.41
2019-05-23T21:33:01.855Z,-21808.00
2019-05-23T21:35:31.069Z,-21816.11
2019-05-23T21:37:59.683Z,-21819.96
2019-05-23T21:40:34.009Z,-21836.03
2019-05-23T21:43:02.316Z,-21829.86
2019-05-23T21:45:30.782Z,-21828.61
2019-05-23T21:47:59.120Z,-21807.04
2019-05-23T21:50:27.402Z,-21866.34
2019-05-23T21:52:55.713Z,-21807.04
2019-05-23T21:55:35.453Z,-21809.79
2019-05-23T21:58:04.732Z,-21772.89
2019-05-23T22:01:07.962Z,-21802.91
2019-05-23T22:03:44.992Z,-21813.63
2019-05-23T22:06:24.960Z,-21818.31
2019-05-23T22:08:53.466Z,-21822.85
2019-05-23T22:11:21.854Z,-21811.99
2019-05-23T22:13:50.157Z,-21825.59
2019-05-23T22:16:19.024Z,-21820.23
2019-05-23T22:18:47.316Z,-21839.19
2019-05-23T22:21:16.003Z,-21818.17
2019-05-23T22:23:44.486Z,-21820.78
2019-05-23T22:26:12.933Z,-21803.73
2019-05-23T22:28:41.332Z,-21821.20
2019-05-23T22:31:10.981Z,-21810.33
2019-05-23T22:33:40.918Z,-21810.48
2019-05-23T22:36:09.232Z,-21838.78
2019-05-23T22:38:37.601Z,-21821.34
2019-05-23T22:41:05.918Z,-21800.84
2019-05-23T22:43:34.218Z,-21822.98
2019-05-23T22:46:02.534Z,-21834.52
2019-05-23T22:48:30.801Z,-21813.63
2019-05-23T22:50:59.149Z,-21804.15
2019-05-23T22:53:28.663Z,-21803.19
2019-05-23T22:55:58.039Z,-21801.94
2019-05-23T22:58:26.372Z,-21791.62
2019-05-23T23:00:54.801Z,-21775.51
2019-05-23T23:03:23.087Z,-21794.51
2019-05-23T23:05:51.758Z,-21795.34
2019-05-23T23:08:20.799Z,-21821.47
2019-05-23T23:10:49.143Z,-21787.07
2019-05-23T23:13:17.755Z,-21792.45
2019-05-23T23:15:46.052Z,-21792.59
2019-05-23T23:18:14.425Z,-21781.02
2019-05-23T23:20:45.713Z,-21785.15
2019-05-23T23:23:12.901Z,-21799.19
2019-05-23T23:25:41.185Z,-21788.87
2019-05-23T23:28:09.480Z,-21804.84
2019-05-23T23:30:41.930Z,-21790.66
2019-05-23T23:33:10.266Z,-21814.87
2019-05-23T23:35:41.822Z,-21801.67
2019-05-23T23:38:10.218Z,-21769.30
2019-05-23T23:40:38.655Z,-21777.16
2019-05-23T23:43:06.863Z,-21793.69
2019-05-23T23:45:53.132Z,-21789.55
2019-05-23T23:48:39.450Z,-21737.29
2019-05-23T23:51:25.466Z,-21759.93
2019-05-23T23:54:11.642Z,-21792.18
2019-05-23T23:56:57.798Z,-21775.09
2019-05-23T23:59:25.330Z,-21773.16
